Time;durP1;ratioP1;P1;durP2;ratioP2;P2;SDS_P1;SDS_P2;PMS_P1;PMS_P2;Temp;Humidity;BMP_temperature;BMP_pressure;BME280_temperature;BME280_humidity;BME280_pressure;Samples;Min_cycle;Max_cycle;Signal;HPM_P1;HPM_P2
2021/04/10 00:02:58;;;;;;;5.38;4.88;;;;;;;;;;10004042;29;20055;-60
2021/04/10 00:07:55;;;;;;;4.80;4.25;;;;;;;;;;10003950;29;20506;-60
2021/04/10 00:12:53;;;;;;;7.80;5.05;;;;;;;;;;10003245;29;20040;-60
2021/04/10 00:17:51;;;;;;;5.97;4.88;;;;;;;;;;10003431;29;20075;-60
2021/04/10 00:22:48;;;;;;;5.55;4.80;;;;;;;;;;10002686;29;20052;-60
2021/04/10 00:27:46;;;;;;;5.60;4.95;;;;;;;;;;10001352;29;20048;-60
2021/04/10 00:32:44;;;;;;;7.20;5.10;;;;;;;;;;10003028;29;20482;-60
2021/04/10 00:37:41;;;;;;;7.57;5.22;;;;;;;;;;10001762;29;20075;-58
2021/04/10 00:42:39;;;;;;;6.18;5.18;;;;;;;;;;10002194;29;20520;-60
2021/04/10 00:47:36;;;;;;;5.22;4.72;;;;;;;;;;10002291;29;20071;-60
2021/04/10 00:52:36;;;;;;;4.97;4.38;;;;;;;;;;10002003;29;20048;-60
2021/04/10 00:57:34;;;;;;;7.55;5.45;;;;;;;;;;10001289;29;20481;-61
2021/04/10 01:02:31;;;;;;;7.80;5.63;;;;;;;;;;9999764;29;20414;-61
2021/04/10 01:07:31;;;;;;;5.82;5.05;;;;;;;;;;9999815;29;20048;-61
2021/04/10 01:12:39;;;;;;;8.07;5.93;;;;;;;;;;10001518;29;20080;-61
2021/04/10 01:17:41;;;;;;;16.23;14.60;;;;;;;;;;10001123;29;20469;-61
2021/04/10 01:23:03;;;;;;;7.60;5.63;;;;;;;;;;9999370;29;20051;-61
2021/04/10 01:28:01;;;;;;;9.68;7.10;;;;;;;;;;9990024;29;20080;-60
2021/04/10 01:33:02;;;;;;;5.93;5.32;;;;;;;;;;9999163;29;20051;-60
2021/04/10 01:38:00;;;;;;;5.10;4.57;;;;;;;;;;9999497;29;20086;-61
2021/04/10 01:43:00;;;;;;;8.80;6.60;;;;;;;;;;10000342;29;20561;-61
2021/04/10 01:47:59;;;;;;;6.90;6.15;;;;;;;;;;9997458;29;20051;-60
2021/04/10 01:52:59;;;;;;;7.40;6.55;;;;;;;;;;9998119;29;20055;-61
2021/04/10 01:57:57;;;;;;;9.65;7.50;;;;;;;;;;9998127;29;20458;-60
2021/04/10 02:02:59;;;;;;;8.20;7.40;;;;;;;;;;9998905;29;20091;-60
2021/04/10 02:07:56;;;;;;;14.55;10.90;;;;;;;;;;9999222;29;20087;-60
2021/04/10 02:12:56;;;;;;;11.02;9.23;;;;;;;;;;9998158;29;20044;-60
2021/04/10 02:18:22;;;;;;;13.00;10.95;;;;;;;;;;9986527;29;20130;-60
2021/04/10 02:23:24;;;;;;;12.60;11.02;;;;;;;;;;9997907;29;20063;-61
2021/04/10 02:28:32;;;;;;;9.43;8.43;;;;;;;;;;9997218;29;20067;-60
2021/04/10 02:33:34;;;;;;;10.32;7.60;;;;;;;;;;9997960;29;20059;-60
2021/04/10 02:38:33;;;;;;;12.20;10.45;;;;;;;;;;9998254;29;20079;-60
2021/04/10 02:43:32;;;;;;;9.55;6.30;;;;;;;;;;9998561;29;20055;-60
2021/04/10 02:48:33;;;;;;;9.82;6.18;;;;;;;;;;9996519;29;20052;-60
2021/04/10 02:53:34;;;;;;;7.30;5.90;;;;;;;;;;9998011;29;20085;-61
2021/04/10 02:58:32;;;;;;;8.02;5.95;;;;;;;;;;9998187;29;20485;-60
2021/04/10 03:03:32;;;;;;;9.02;5.90;;;;;;;;;;10004162;29;20091;-59
2021/04/10 03:08:30;;;;;;;9.45;6.07;;;;;;;;;;10005084;29;20514;-59
2021/04/10 03:13:33;;;;;;;6.28;5.35;;;;;;;;;;10003714;29;20056;-60
2021/04/10 03:18:47;;;;;;;7.22;5.70;;;;;;;;;;10003958;29;20091;-60
2021/04/10 03:23:47;;;;;;;10.38;6.03;;;;;;;;;;10003246;29;20048;-60
2021/04/10 03:28:48;;;;;;;7.30;5.25;;;;;;;;;;10003175;29;20434;-60
2021/04/10 03:33:46;;;;;;;7.65;5.35;;;;;;;;;;10005483;29;20076;-60
2021/04/10 03:38:44;;;;;;;64.38;31.83;;;;;;;;;;10003538;29;20079;-60
2021/04/10 03:43:44;;;;;;;8.23;6.65;;;;;;;;;;10004932;29;20070;-60
2021/04/10 03:48:41;;;;;;;9.10;6.65;;;;;;;;;;10002184;29;20059;-60
2021/04/10 03:53:49;;;;;;;7.00;5.47;;;;;;;;;;10004562;29;20462;-60
2021/04/10 03:58:48;;;;;;;9.73;7.30;;;;;;;;;;10001506;29;20475;-60
2021/04/10 04:03:57;;;;;;;7.40;5.28;;;;;;;;;;10001922;29;20056;-60
2021/04/10 04:08:55;;;;;;;6.25;5.20;;;;;;;;;;10002053;29;20075;-60
2021/04/10 04:13:53;;;;;;;12.85;8.35;;;;;;;;;;10001325;29;20332;-60
2021/04/10 04:18:50;;;;;;;7.00;6.28;;;;;;;;;;10002799;29;20091;-60
2021/04/10 04:23:47;;;;;;;7.60;6.60;;;;;;;;;;10003592;29;20044;-60
2021/04/10 04:28:45;;;;;;;7.05;5.15;;;;;;;;;;10000776;29;20083;-60
2021/04/10 04:33:42;;;;;;;6.80;5.82;;;;;;;;;;10003366;29;20076;-60
2021/04/10 04:38:40;;;;;;;9.15;6.03;;;;;;;;;;10002346;29;20076;-60
2021/04/10 04:43:37;;;;;;;7.75;6.05;;;;;;;;;;10001678;29;20052;-60
2021/04/10 04:48:35;;;;;;;20.92;13.48;;;;;;;;;;10001258;29;20044;-60
2021/04/10 04:53:33;;;;;;;22.33;13.57;;;;;;;;;;10002388;29;20414;-59
2021/04/10 04:58:30;;;;;;;18.80;14.15;;;;;;;;;;10001743;29;20083;-58
2021/04/10 05:03:27;;;;;;;12.32;8.10;;;;;;;;;;10001210;29;20044;-58
2021/04/10 05:08:26;;;;;;;8.98;7.45;;;;;;;;;;10001119;29;20048;-58
2021/04/10 05:13:23;;;;;;;9.52;6.95;;;;;;;;;;9999730;29;20051;-58
2021/04/10 05:18:20;;;;;;;9.95;8.55;;;;;;;;;;9998887;29;20091;-58
2021/04/10 05:23:21;;;;;;;19.52;13.77;;;;;;;;;;9998710;29;20055;-59
2021/04/10 05:28:19;;;;;;;10.50;6.13;;;;;;;;;;10000732;29;20526;-59
2021/04/10 05:33:17;;;;;;;7.22;5.75;;;;;;;;;;9999450;29;20422;-59
2021/04/10 05:38:14;;;;;;;9.55;5.85;;;;;;;;;;10000315;29;20084;-59
2021/04/10 05:43:11;;;;;;;8.63;6.20;;;;;;;;;;10000507;29;20044;-59
2021/04/10 05:48:10;;;;;;;14.38;6.63;;;;;;;;;;9999723;29;20052;-60
2021/04/10 05:53:07;;;;;;;7.40;6.60;;;;;;;;;;9998323;29;20052;-60
2021/04/10 05:58:04;;;;;;;36.65;26.33;;;;;;;;;;9999899;29;20083;-59
2021/04/10 06:03:02;;;;;;;16.80;11.18;;;;;;;;;;9999666;29;20056;-60
2021/04/10 06:08:00;;;;;;;38.90;14.10;;;;;;;;;;9998613;29;20091;-59
2021/04/10 06:12:57;;;;;;;39.92;20.58;;;;;;;;;;9999127;29;20052;-59
2021/04/10 06:17:55;;;;;;;47.15;26.45;;;;;;;;;;9998818;29;20470;-59
2021/04/10 06:22:52;;;;;;;37.63;19.77;;;;;;;;;;9999136;29;20076;-60
2021/04/10 06:27:50;;;;;;;32.53;17.35;;;;;;;;;;9998264;29;20522;-60
2021/04/10 06:32:47;;;;;;;27.48;15.48;;;;;;;;;;9998254;29;20044;-59
2021/04/10 06:37:45;;;;;;;31.58;15.70;;;;;;;;;;9998535;29;20552;-60
2021/04/10 06:42:42;;;;;;;14.90;8.63;;;;;;;;;;9998189;29;20069;-59
2021/04/10 06:47:41;;;;;;;11.43;6.72;;;;;;;;;;9998055;29;20437;-59
2021/04/10 06:52:40;;;;;;;8.48;5.95;;;;;;;;;;9996174;29;20044;-60
2021/04/10 06:57:41;;;;;;;7.50;6.03;;;;;;;;;;9998118;29;20079;-60
2021/04/10 07:02:40;;;;;;;5.40;4.10;;;;;;;;;;9997705;29;20080;-60
2021/04/10 07:07:39;;;;;;;35.00;17.05;;;;;;;;;;9998178;29;20051;-61
2021/04/10 07:12:37;;;;;;;10.20;7.13;;;;;;;;;;9998391;29;20036;-60
2021/04/10 07:17:34;;;;;;;7.90;5.15;;;;;;;;;;9998184;29;20545;-61
2021/04/10 07:22:32;;;;;;;9.68;5.97;;;;;;;;;;9997693;29;20264;-60
2021/04/10 07:27:30;;;;;;;6.78;4.88;;;;;;;;;;9997583;29;20107;-60
2021/04/10 07:32:32;;;;;;;5.40;4.18;;;;;;;;;;9995998;29;20458;-60
2021/04/10 07:37:31;;;;;;;6.13;4.35;;;;;;;;;;9997742;29;20080;-60
2021/04/10 07:42:29;;;;;;;6.32;4.53;;;;;;;;;;9997629;29;20059;-60
2021/04/10 07:47:33;;;;;;;11.18;7.25;;;;;;;;;;10003206;29;20498;-60
2021/04/10 07:52:31;;;;;;;8.63;6.47;;;;;;;;;;10003760;29;20052;-60
2021/04/10 07:57:28;;;;;;;11.55;6.00;;;;;;;;;;10003504;29;20094;-61
2021/04/10 08:02:32;;;;;;;17.23;10.27;;;;;;;;;;10003660;29;20058;-59
2021/04/10 08:07:31;;;;;;;25.33;12.57;;;;;;;;;;10004092;29;20484;-58
2021/04/10 08:12:29;;;;;;;7.63;3.30;;;;;;;;;;10002172;29;20487;-61
2021/04/10 08:17:34;;;;;;;7.15;5.45;;;;;;;;;;10002832;29;20079;-59
2021/04/10 08:22:32;;;;;;;7.55;4.55;;;;;;;;;;10002247;29;20080;-58
2021/04/10 08:27:29;;;;;;;6.68;4.13;;;;;;;;;;10001267;29;20067;-60
2021/04/10 08:32:27;;;;;;;7.22;3.40;;;;;;;;;;10003008;29;20068;-60
2021/04/10 08:37:26;;;;;;;12.63;4.93;;;;;;;;;;10001899;29;20192;-60
2021/04/10 08:42:26;;;;;;;23.20;16.92;;;;;;;;;;10002432;29;20467;-59
2021/04/10 08:47:23;;;;;;;8.73;6.20;;;;;;;;;;10002172;29;20087;-60
2021/04/10 08:52:22;;;;;;;3.47;3.05;;;;;;;;;;10001979;29;20083;-60
2021/04/10 08:57:19;;;;;;;4.65;3.35;;;;;;;;;;10000967;29;20080;-60
2021/04/10 09:02:19;;;;;;;3.30;2.45;;;;;;;;;;10001782;29;20517;-59
2021/04/10 09:07:16;;;;;;;5.35;4.05;;;;;;;;;;10000619;29;20052;-59
2021/04/10 09:12:21;;;;;;;4.57;3.28;;;;;;;;;;9999908;29;20044;-60
2021/04/10 09:17:20;;;;;;;5.80;4.22;;;;;;;;;;10001435;29;20087;-61
2021/04/10 09:22:18;;;;;;;4.43;3.28;;;;;;;;;;10000924;29;20410;-60
2021/04/10 09:27:20;;;;;;;7.75;5.30;;;;;;;;;;10000750;29;20083;-60
2021/04/10 09:32:32;;;;;;;3.83;2.97;;;;;;;;;;10000012;29;20087;-60
2021/04/10 09:38:05;;;;;;;4.18;3.25;;;;;;;;;;9998200;29;20103;-59
2021/04/10 09:43:04;;;;;;;13.27;3.05;;;;;;;;;;10000134;29;20087;-59
2021/04/10 09:48:21;;;;;;;5.20;4.35;;;;;;;;;;10000105;29;20072;-60
2021/04/10 09:53:19;;;;;;;6.10;2.83;;;;;;;;;;10000187;29;20370;-60
2021/04/10 09:58:18;;;;;;;6.18;4.50;;;;;;;;;;9999269;29;20083;-59
2021/04/10 10:03:18;;;;;;;7.20;5.25;;;;;;;;;;9999754;29;20075;-59
2021/04/10 10:08:33;;;;;;;8.63;4.85;;;;;;;;;;9999383;29;20482;-59
2021/04/10 10:13:32;;;;;;;3.80;2.67;;;;;;;;;;9998463;29;20642;-60
2021/04/10 10:18:31;;;;;;;6.70;4.07;;;;;;;;;;9999358;29;20087;-59
2021/04/10 10:23:29;;;;;;;23.17;10.63;;;;;;;;;;9998809;29;20498;-57
2021/04/10 10:28:26;;;;;;;10.38;5.93;;;;;;;;;;9998275;29;20087;-58
2021/04/10 10:33:25;;;;;;;4.18;3.22;;;;;;;;;;9998961;29;20084;-59
2021/04/10 10:38:24;;;;;;;18.92;12.27;;;;;;;;;;9997953;29;20470;-58
2021/04/10 10:43:23;;;;;;;6.97;5.05;;;;;;;;;;9998775;29;20048;-58
2021/04/10 10:48:22;;;;;;;4.47;2.47;;;;;;;;;;9998041;29;20048;-58
2021/04/10 10:53:21;;;;;;;6.30;4.68;;;;;;;;;;9998537;29;20048;-57
2021/04/10 10:58:18;;;;;;;6.65;5.10;;;;;;;;;;9998995;29;20084;-58
2021/04/10 11:03:19;;;;;;;3.38;2.50;;;;;;;;;;9998136;29;20083;-58
2021/04/10 11:08:17;;;;;;;3.80;2.15;;;;;;;;;;9998030;29;20059;-60
2021/04/10 11:13:16;;;;;;;3.28;2.75;;;;;;;;;;10000543;29;20043;-60
2021/04/10 11:18:24;;;;;;;4.10;2.97;;;;;;;;;;10035875;29;20082;-60
2021/04/10 11:23:21;;;;;;;6.72;5.57;;;;;;;;;;10042494;29;20489;-59
2021/04/10 11:28:26;;;;;;;3.50;2.40;;;;;;;;;;10040492;29;20474;-61
2021/04/10 11:33:33;;;;;;;2.78;2.53;;;;;;;;;;10044406;29;20437;-61
2021/04/10 11:38:30;;;;;;;4.55;3.33;;;;;;;;;;10043670;29;20095;-59
2021/04/10 11:43:29;;;;;;;10.18;6.88;;;;;;;;;;10044111;29;20094;-60
2021/04/10 11:48:26;;;;;;;6.60;4.53;;;;;;;;;;10043198;29;20438;-60
2021/04/10 11:53:25;;;;;;;11.65;5.10;;;;;;;;;;10043296;29;20047;-60
2021/04/10 11:58:30;;;;;;;6.50;3.55;;;;;;;;;;10042794;29;20090;-61
2021/04/10 12:03:28;;;;;;;6.78;5.57;;;;;;;;;;10042356;29;20090;-59
2021/04/10 12:08:26;;;;;;;9.70;5.85;;;;;;;;;;10041552;29;20493;-61
2021/04/10 12:13:24;;;;;;;5.90;4.18;;;;;;;;;;10042353;29;20059;-60
2021/04/10 12:18:23;;;;;;;5.10;3.38;;;;;;;;;;10041848;29;20087;-60
2021/04/10 12:23:20;;;;;;;6.05;3.30;;;;;;;;;;10042044;29;20051;-60
2021/04/10 12:28:18;;;;;;;10.95;6.40;;;;;;;;;;10041672;29;20055;-60
2021/04/10 12:33:16;;;;;;;4.68;3.55;;;;;;;;;;10039540;29;20083;-60
2021/04/10 12:38:15;;;;;;;3.10;2.78;;;;;;;;;;10039037;29;20079;-59
2021/04/10 12:43:12;;;;;;;5.28;2.10;;;;;;;;;;10039375;29;20079;-59
2021/04/10 12:48:09;;;;;;;2.95;2.30;;;;;;;;;;10038337;29;20071;-62
2021/04/10 12:53:07;;;;;;;5.95;2.80;;;;;;;;;;10040923;29;20083;-62
2021/04/10 12:58:05;;;;;;;4.20;3.10;;;;;;;;;;10042004;29;20075;-61
2021/04/10 13:03:02;;;;;;;7.15;4.10;;;;;;;;;;10041079;29;20075;-61
2021/04/10 13:08:00;;;;;;;5.38;3.65;;;;;;;;;;10040368;29;20090;-60
2021/04/10 13:12:57;;;;;;;18.33;9.57;;;;;;;;;;10039869;29;20071;-61
2021/04/10 13:17:55;;;;;;;3.95;3.03;;;;;;;;;;10040277;29;20076;-60
2021/04/10 13:22:53;;;;;;;5.18;3.00;;;;;;;;;;10039868;29;20485;-60
2021/04/10 13:27:51;;;;;;;3.63;2.97;;;;;;;;;;10038266;29;20399;-62
2021/04/10 13:32:48;;;;;;;4.93;2.80;;;;;;;;;;10039716;29;20513;-61
2021/04/10 13:37:46;;;;;;;5.97;2.83;;;;;;;;;;10039512;29;20087;-60
2021/04/10 13:42:44;;;;;;;4.53;3.80;;;;;;;;;;10038904;29;20417;-59
2021/04/10 13:47:41;;;;;;;3.47;2.67;;;;;;;;;;10038601;29;20517;-60
2021/04/10 13:52:38;;;;;;;3.10;2.45;;;;;;;;;;10039395;29;20047;-60
2021/04/10 13:57:37;;;;;;;4.00;2.88;;;;;;;;;;10038482;29;20493;-60
2021/04/10 14:02:34;;;;;;;6.65;3.10;;;;;;;;;;10038466;29;20079;-60
2021/04/10 14:07:34;;;;;;;5.57;4.25;;;;;;;;;;10030600;29;20089;-61
2021/04/10 14:12:31;;;;;;;5.68;2.65;;;;;;;;;;10016545;29;20090;-60
2021/04/10 14:17:29;;;;;;;8.43;3.75;;;;;;;;;;10009504;29;20075;-59
2021/04/10 14:22:26;;;;;;;10.77;6.43;;;;;;;;;;10013723;29;20064;-62
2021/04/10 14:27:25;;;;;;;16.50;8.70;;;;;;;;;;10014580;29;20071;-63
2021/04/10 14:32:23;;;;;;;3.00;2.60;;;;;;;;;;10014679;29;20075;-62
2021/04/10 14:37:21;;;;;;;4.72;2.80;;;;;;;;;;10018982;29;20074;-63
2021/04/10 14:42:18;;;;;;;7.38;4.03;;;;;;;;;;10037412;29;20071;-63
2021/04/10 14:47:16;;;;;;;4.55;3.08;;;;;;;;;;10037097;29;20052;-63
2021/04/10 14:52:13;;;;;;;5.05;3.35;;;;;;;;;;10036265;29;20047;-63
2021/04/10 14:57:11;;;;;;;13.20;7.10;;;;;;;;;;10043066;29;20082;-64
2021/04/10 15:02:08;;;;;;;2.75;2.15;;;;;;;;;;10043759;29;20083;-63
2021/04/10 15:07:07;;;;;;;3.58;2.70;;;;;;;;;;10045210;29;20867;-62
2021/04/10 15:12:04;;;;;;;5.95;5.35;;;;;;;;;;10043671;29;20082;-62
2021/04/10 15:17:01;;;;;;;6.53;3.97;;;;;;;;;;10044611;29;20184;-63
2021/04/10 15:21:59;;;;;;;6.47;4.00;;;;;;;;;;10043600;29;20492;-64
2021/04/10 15:26:57;;;;;;;9.23;7.82;;;;;;;;;;10044260;29;20066;-63
2021/04/10 15:31:54;;;;;;;7.85;5.57;;;;;;;;;;10043690;29;20090;-63
2021/04/10 15:36:52;;;;;;;14.73;11.43;;;;;;;;;;10043159;29;20504;-64
2021/04/10 15:41:49;;;;;;;13.43;9.80;;;;;;;;;;10043707;29;20088;-64
2021/04/10 15:46:48;;;;;;;14.50;10.98;;;;;;;;;;10043480;29;20051;-62
2021/04/10 15:51:45;;;;;;;14.63;8.23;;;;;;;;;;10042955;29;20044;-63
2021/04/10 15:56:43;;;;;;;6.45;3.03;;;;;;;;;;10043236;29;20075;-61
2021/04/10 16:01:40;;;;;;;5.15;3.60;;;;;;;;;;10042320;29;20083;-63
2021/04/10 16:06:38;;;;;;;9.13;7.03;;;;;;;;;;10041974;29;20044;-63
2021/04/10 16:11:36;;;;;;;6.50;4.55;;;;;;;;;;10040967;29;20079;-64
2021/04/10 16:16:33;;;;;;;7.68;5.78;;;;;;;;;;10042315;29;20035;-62
2021/04/10 16:21:32;;;;;;;31.98;21.33;;;;;;;;;;10039867;29;20078;-64
2021/04/10 16:26:30;;;;;;;7.85;5.93;;;;;;;;;;10041547;29;20071;-61
2021/04/10 16:31:28;;;;;;;16.17;10.98;;;;;;;;;;10030219;29;20080;-63
2021/04/10 16:36:25;;;;;;;17.25;11.73;;;;;;;;;;10009064;29;20079;-62
2021/04/10 16:41:23;;;;;;;56.67;33.13;;;;;;;;;;10011093;29;20091;-63
2021/04/10 16:46:21;;;;;;;47.78;30.25;;;;;;;;;;10016485;29;20078;-62
2021/04/10 16:51:18;;;;;;;41.45;23.92;;;;;;;;;;10011841;29;20530;-63
2021/04/10 16:56:16;;;;;;;23.35;14.90;;;;;;;;;;10016212;29;20083;-63
2021/04/10 17:01:13;;;;;;;139.95;71.10;;;;;;;;;;10018102;29;20072;-64
2021/04/10 17:06:11;;;;;;;143.43;87.25;;;;;;;;;;10035498;29;20171;-61
2021/04/10 17:11:09;;;;;;;63.75;47.83;;;;;;;;;;10037847;29;20051;-63
2021/04/10 17:16:06;;;;;;;61.58;44.97;;;;;;;;;;10033528;29;20071;-62
2021/04/10 17:21:04;;;;;;;38.53;26.40;;;;;;;;;;10033447;29;20200;-62
2021/04/10 17:26:02;;;;;;;29.52;22.30;;;;;;;;;;10034048;29;20068;-62
2021/04/10 17:31:03;;;;;;;34.65;24.17;;;;;;;;;;10037080;29;20079;-63
2021/04/10 17:36:01;;;;;;;26.35;20.08;;;;;;;;;;10038925;29;20071;-62
2021/04/10 17:40:58;;;;;;;42.05;28.00;;;;;;;;;;10038843;29;20082;-61
2021/04/10 17:45:59;;;;;;;45.47;28.30;;;;;;;;;;10038452;29;20075;-63
2021/04/10 17:50:56;;;;;;;63.03;40.92;;;;;;;;;;10008973;29;20503;-64
2021/04/10 17:55:55;;;;;;;45.28;30.20;;;;;;;;;;10004069;29;20067;-62
2021/04/10 18:00:53;;;;;;;43.10;30.40;;;;;;;;;;10013346;29;20481;-63
2021/04/10 18:05:53;;;;;;;42.88;26.95;;;;;;;;;;9999311;29;20084;-64
2021/04/10 18:10:50;;;;;;;34.30;21.40;;;;;;;;;;9999761;29;20083;-63
2021/04/10 18:15:48;;;;;;;30.38;18.85;;;;;;;;;;9999190;29;20040;-63
2021/04/10 18:20:45;;;;;;;21.83;13.43;;;;;;;;;;9998640;29;20080;-63
2021/04/10 18:25:43;;;;;;;18.73;12.70;;;;;;;;;;9999040;29;20141;-62
2021/04/10 18:30:41;;;;;;;27.35;15.90;;;;;;;;;;9998076;29;20110;-63
2021/04/10 18:35:38;;;;;;;24.77;15.57;;;;;;;;;;9998537;29;20343;-63
2021/04/10 18:40:35;;;;;;;24.08;15.48;;;;;;;;;;9998660;29;20091;-64
2021/04/10 18:45:34;;;;;;;23.48;14.88;;;;;;;;;;9998742;29;20058;-65
2021/04/10 18:50:31;;;;;;;27.33;18.73;;;;;;;;;;9998633;29;20347;-63
2021/04/10 18:55:28;;;;;;;46.35;25.92;;;;;;;;;;9999011;29;20048;-63
2021/04/10 19:00:26;;;;;;;97.80;52.22;;;;;;;;;;10015800;29;20080;-63
2021/04/10 19:05:24;;;;;;;43.25;29.75;;;;;;;;;;10014477;29;20095;-62
2021/04/10 19:10:22;;;;;;;24.45;14.23;;;;;;;;;;10019557;29;20067;-63
2021/04/10 19:15:21;;;;;;;13.02;8.48;;;;;;;;;;10017135;29;20074;-63
2021/04/10 19:20:20;;;;;;;7.72;4.63;;;;;;;;;;10027329;29;20086;-64
2021/04/10 19:25:18;;;;;;;7.22;4.55;;;;;;;;;;10013919;29;20541;-62
2021/04/10 19:30:16;;;;;;;7.50;4.75;;;;;;;;;;9997856;29;20549;-64
2021/04/10 19:35:14;;;;;;;5.75;5.13;;;;;;;;;;9998594;29;20091;-63
2021/04/10 19:40:11;;;;;;;15.10;10.02;;;;;;;;;;10009456;29;20075;-64
2021/04/10 19:45:11;;;;;;;22.38;14.55;;;;;;;;;;10014911;29;20565;-63
2021/04/10 19:50:09;;;;;;;20.15;16.20;;;;;;;;;;10005684;29;20083;-62
2021/04/10 19:55:07;;;;;;;9.18;7.45;;;;;;;;;;10003226;29;20079;-62
2021/04/10 20:00:06;;;;;;;6.57;5.70;;;;;;;;;;10003687;29;20083;-61
2021/04/10 20:05:10;;;;;;;7.20;4.80;;;;;;;;;;10004503;29;20084;-61
2021/04/10 20:10:08;;;;;;;7.50;4.85;;;;;;;;;;10004444;29;20413;-61
2021/04/10 20:15:06;;;;;;;6.07;4.70;;;;;;;;;;10011305;29;20086;-63
2021/04/10 20:20:03;;;;;;;5.40;4.05;;;;;;;;;;10010386;29;20494;-62
2021/04/10 20:25:01;;;;;;;11.80;4.93;;;;;;;;;;10021289;29;20087;-64
2021/04/10 20:29:59;;;;;;;8.65;5.90;;;;;;;;;;10041831;29;20098;-63
2021/04/10 20:34:57;;;;;;;11.30;5.47;;;;;;;;;;10024784;29;20090;-63
2021/04/10 20:39:54;;;;;;;9.27;5.25;;;;;;;;;;10021860;29;20080;-62
2021/04/10 20:44:52;;;;;;;6.72;5.45;;;;;;;;;;10021707;29;20102;-63
2021/04/10 20:49:50;;;;;;;9.43;6.10;;;;;;;;;;10020631;29;20071;-63
2021/04/10 20:54:47;;;;;;;6.43;4.03;;;;;;;;;;10020659;29;20417;-64
2021/04/10 20:59:45;;;;;;;5.95;4.47;;;;;;;;;;10016472;29;20079;-62
2021/04/10 21:04:43;;;;;;;5.18;3.85;;;;;;;;;;10018135;29;20052;-62
2021/04/10 21:09:42;;;;;;;4.65;3.42;;;;;;;;;;10017062;29;20517;-62
2021/04/10 21:14:40;;;;;;;8.75;6.90;;;;;;;;;;10020457;29;20067;-62
2021/04/10 21:19:37;;;;;;;6.07;4.13;;;;;;;;;;10018789;29;20072;-62
2021/04/10 21:24:37;;;;;;;5.05;4.10;;;;;;;;;;10032179;29;20051;-63
2021/04/10 21:29:35;;;;;;;6.32;4.22;;;;;;;;;;10038943;29;20059;-63
2021/04/10 21:34:32;;;;;;;11.43;4.07;;;;;;;;;;10026316;29;20536;-63
2021/04/10 21:39:30;;;;;;;6.65;4.32;;;;;;;;;;10017525;29;20142;-62
2021/04/10 21:44:28;;;;;;;5.22;4.10;;;;;;;;;;10017778;29;20051;-62
2021/04/10 21:49:25;;;;;;;6.57;4.25;;;;;;;;;;10018543;29;20078;-62
2021/04/10 21:54:24;;;;;;;4.35;3.55;;;;;;;;;;10027035;29;20078;-62
2021/04/10 21:59:21;;;;;;;6.75;3.70;;;;;;;;;;10007142;29;20471;-62
2021/04/10 22:04:21;;;;;;;4.13;3.60;;;;;;;;;;10017977;29;20430;-61
2021/04/10 22:09:19;;;;;;;4.75;4.00;;;;;;;;;;10018132;29;20075;-61
2021/04/10 22:14:17;;;;;;;6.50;3.65;;;;;;;;;;10018140;29;20498;-64
2021/04/10 22:19:15;;;;;;;4.75;3.80;;;;;;;;;;10031409;29;20075;-61
2021/04/10 22:24:14;;;;;;;4.93;4.15;;;;;;;;;;10037014;29;20071;-63
2021/04/10 22:29:12;;;;;;;5.55;4.32;;;;;;;;;;10036159;29;20521;-62
2021/04/10 22:34:09;;;;;;;4.53;4.13;;;;;;;;;;10036717;29;20063;-62
2021/04/10 22:39:07;;;;;;;4.32;3.92;;;;;;;;;;10034358;29;20350;-62
2021/04/10 22:44:07;;;;;;;7.57;4.72;;;;;;;;;;10037350;29;20079;-63
2021/04/10 22:49:05;;;;;;;8.25;3.85;;;;;;;;;;10033934;29;20087;-62
2021/04/10 22:54:03;;;;;;;5.82;4.53;;;;;;;;;;10036891;29;20059;-61
2021/04/10 22:59:00;;;;;;;7.72;6.70;;;;;;;;;;10028729;29;20079;-62
2021/04/10 23:03:58;;;;;;;7.32;4.22;;;;;;;;;;10017510;29;20048;-62
2021/04/10 23:08:56;;;;;;;6.68;5.45;;;;;;;;;;10037513;29;20075;-63
2021/04/10 23:13:53;;;;;;;7.47;4.60;;;;;;;;;;10036111;29;20449;-63
2021/04/10 23:18:52;;;;;;;5.35;3.83;;;;;;;;;;10043774;29;20076;-63
2021/04/10 23:23:51;;;;;;;4.85;3.60;;;;;;;;;;10045019;29;20505;-62
2021/04/10 23:28:51;;;;;;;5.45;4.13;;;;;;;;;;10044555;29;20091;-62
2021/04/10 23:33:48;;;;;;;5.85;3.90;;;;;;;;;;10044320;29;20111;-63
2021/04/10 23:38:45;;;;;;;4.72;4.22;;;;;;;;;;10044169;29;20106;-62
2021/04/10 23:43:43;;;;;;;7.38;4.20;;;;;;;;;;10044206;29;20087;-63
2021/04/10 23:48:41;;;;;;;5.15;4.13;;;;;;;;;;10044056;29;20047;-63
2021/04/10 23:53:38;;;;;;;4.20;3.80;;;;;;;;;;10043365;29;20083;-63
2021/04/10 23:58:35;;;;;;;4.55;3.60;;;;;;;;;;10041379;29;20055;-63
